Terminal Aerodrome Forecast
Issued by NWS

Home | Current Version | Previous Version | Graphics & Text | Print | Product List | Glossary On
Versions: 1 2 3 4 5 6 7 8 9 10 11 12 13 14 15 16
000
FTUS43 KGRB 191132
TAFRHI
TAF
KRHI 191132Z 1912/2012 VRB03KT P6SM SCT200
     FM200300 13005KT P6SM BKN200
     FM200600 13006KT P6SM BKN150 WS018/19030KT
     FM201000 13007KT 6SM BR BKN150 WS018/19035KT=

USA.gov is the U.S. government's official web portal to all federal, state and local government web resources and services.